sensor_id;sensor_type;location;lat;lon;timestamp;temperature;humidity
15596;DHT22;7898;48.658;9.068;2023-12-20T00:01:02;6.10;99.90
15596;DHT22;7898;48.658;9.068;2023-12-20T00:03:29;6.10;99.90
15596;DHT22;7898;48.658;9.068;2023-12-20T00:05:55;6.10;99.90
15596;DHT22;7898;48.658;9.068;2023-12-20T00:08:22;6.10;99.90
15596;DHT22;7898;48.658;9.068;2023-12-20T00:10:49;6.10;99.90
15596;DHT22;7898;48.658;9.068;2023-12-20T00:13:16;6.10;99.90
15596;DHT22;7898;48.658;9.068;2023-12-20T00:15:44;6.20;99.90
15596;DHT22;7898;48.658;9.068;2023-12-20T00:18:11;6.20;99.90
15596;DHT22;7898;48.658;9.068;2023-12-20T00:20:38;6.20;99.90
15596;DHT22;7898;48.658;9.068;2023-12-20T00:23:05;6.30;99.90
15596;DHT22;7898;48.658;9.068;2023-12-20T00:25:33;6.20;99.90
15596;DHT22;7898;48.658;9.068;2023-12-20T00:28:00;6.20;99.90
15596;DHT22;7898;48.658;9.068;2023-12-20T00:30:27;6.20;99.90
15596;DHT22;7898;48.658;9.068;2023-12-20T00:32:56;6.20;99.90
15596;DHT22;7898;48.658;9.068;2023-12-20T00:35:23;6.20;99.90
15596;DHT22;7898;48.658;9.068;2023-12-20T00:37:50;6.20;99.90
15596;DHT22;7898;48.658;9.068;2023-12-20T00:40:17;6.20;99.90
15596;DHT22;7898;48.658;9.068;2023-12-20T00:42:43;6.20;99.90
15596;DHT22;7898;48.658;9.068;2023-12-20T00:45:12;6.10;99.90
15596;DHT22;7898;48.658;9.068;2023-12-20T00:47:39;6.20;99.90
15596;DHT22;7898;48.658;9.068;2023-12-20T00:50:08;6.00;99.90
15596;DHT22;7898;48.658;9.068;2023-12-20T00:52:36;6.00;99.90
15596;DHT22;7898;48.658;9.068;2023-12-20T00:55:03;6.00;99.90
15596;DHT22;7898;48.658;9.068;2023-12-20T00:57:32;6.00;99.90
15596;DHT22;7898;48.658;9.068;2023-12-20T00:59:59;6.00;99.90
15596;DHT22;7898;48.658;9.068;2023-12-20T01:02:26;5.90;99.90
15596;DHT22;7898;48.658;9.068;2023-12-20T01:04:53;5.90;99.90
15596;DHT22;7898;48.658;9.068;2023-12-20T01:07:21;5.90;99.90
15596;DHT22;7898;48.658;9.068;2023-12-20T01:09:48;5.90;99.90
15596;DHT22;7898;48.658;9.068;2023-12-20T01:12:15;5.90;99.90
15596;DHT22;7898;48.658;9.068;2023-12-20T01:14:41;5.90;99.90
15596;DHT22;7898;48.658;9.068;2023-12-20T01:17:08;5.80;99.90
15596;DHT22;7898;48.658;9.068;2023-12-20T01:19:35;5.80;99.90
15596;DHT22;7898;48.658;9.068;2023-12-20T01:22:02;5.80;99.90
15596;DHT22;7898;48.658;9.068;2023-12-20T01:24:30;5.70;99.90
15596;DHT22;7898;48.658;9.068;2023-12-20T01:26:57;5.70;99.90
15596;DHT22;7898;48.658;9.068;2023-12-20T01:29:24;5.60;99.90
15596;DHT22;7898;48.658;9.068;2023-12-20T01:31:51;5.60;99.90
15596;DHT22;7898;48.658;9.068;2023-12-20T01:34:18;5.60;99.90
15596;DHT22;7898;48.658;9.068;2023-12-20T01:36:45;5.60;99.90
15596;DHT22;7898;48.658;9.068;2023-12-20T01:39:11;5.60;99.90
15596;DHT22;7898;48.658;9.068;2023-12-20T01:41:39;5.60;99.90
15596;DHT22;7898;48.658;9.068;2023-12-20T01:44:06;5.60;99.90
15596;DHT22;7898;48.658;9.068;2023-12-20T01:46:33;5.60;99.90
15596;DHT22;7898;48.658;9.068;2023-12-20T01:49:00;5.60;99.90
15596;DHT22;7898;48.658;9.068;2023-12-20T01:51:27;5.50;99.90
15596;DHT22;7898;48.658;9.068;2023-12-20T01:53:55;5.50;99.90
15596;DHT22;7898;48.658;9.068;2023-12-20T01:56:24;5.60;99.90
15596;DHT22;7898;48.658;9.068;2023-12-20T01:58:52;5.60;99.90
15596;DHT22;7898;48.658;9.068;2023-12-20T02:01:20;5.50;99.90
15596;DHT22;7898;48.658;9.068;2023-12-20T02:03:47;5.40;99.90
15596;DHT22;7898;48.658;9.068;2023-12-20T02:06:14;5.40;99.90
15596;DHT22;7898;48.658;9.068;2023-12-20T02:08:41;5.40;99.90
15596;DHT22;7898;48.658;9.068;2023-12-20T02:11:08;5.40;99.90
15596;DHT22;7898;48.658;9.068;2023-12-20T02:13:36;5.40;99.90
15596;DHT22;7898;48.658;9.068;2023-12-20T02:16:04;5.50;99.90
15596;DHT22;7898;48.658;9.068;2023-12-20T02:18:32;5.50;99.90
15596;DHT22;7898;48.658;9.068;2023-12-20T02:20:59;5.50;99.90
15596;DHT22;7898;48.658;9.068;2023-12-20T02:23:27;5.50;99.90
15596;DHT22;7898;48.658;9.068;2023-12-20T02:25:54;5.50;99.90
15596;DHT22;7898;48.658;9.068;2023-12-20T02:28:21;5.50;99.90
15596;DHT22;7898;48.658;9.068;2023-12-20T02:30:49;5.50;99.90
15596;DHT22;7898;48.658;9.068;2023-12-20T02:33:15;5.40;99.90
15596;DHT22;7898;48.658;9.068;2023-12-20T02:35:43;5.50;99.90
15596;DHT22;7898;48.658;9.068;2023-12-20T02:38:09;5.50;99.90
15596;DHT22;7898;48.658;9.068;2023-12-20T02:40:38;5.50;99.90
15596;DHT22;7898;48.658;9.068;2023-12-20T02:43:04;5.50;99.90
15596;DHT22;7898;48.658;9.068;2023-12-20T02:45:31;5.40;99.90
15596;DHT22;7898;48.658;9.068;2023-12-20T02:47:58;5.40;99.90
15596;DHT22;7898;48.658;9.068;2023-12-20T02:50:25;5.40;99.90
15596;DHT22;7898;48.658;9.068;2023-12-20T02:52:52;5.40;99.90
15596;DHT22;7898;48.658;9.068;2023-12-20T02:55:19;5.40;99.90
15596;DHT22;7898;48.658;9.068;2023-12-20T02:57:47;5.40;99.90
15596;DHT22;7898;48.658;9.068;2023-12-20T03:00:14;5.40;99.90
15596;DHT22;7898;48.658;9.068;2023-12-20T03:02:41;5.30;99.90
15596;DHT22;7898;48.658;9.068;2023-12-20T03:05:08;5.30;99.90
15596;DHT22;7898;48.658;9.068;2023-12-20T03:07:36;5.30;99.90
15596;DHT22;7898;48.658;9.068;2023-12-20T03:10:04;5.20;99.90
15596;DHT22;7898;48.658;9.068;2023-12-20T03:12:31;5.20;99.90
15596;DHT22;7898;48.658;9.068;2023-12-20T03:14:59;5.10;99.90
15596;DHT22;7898;48.658;9.068;2023-12-20T03:17:26;5.20;99.90
15596;DHT22;7898;48.658;9.068;2023-12-20T03:19:53;5.30;99.90
15596;DHT22;7898;48.658;9.068;2023-12-20T03:22:20;5.30;99.90
15596;DHT22;7898;48.658;9.068;2023-12-20T03:24:47;5.30;99.90
15596;DHT22;7898;48.658;9.068;2023-12-20T03:27:14;5.30;99.90
15596;DHT22;7898;48.658;9.068;2023-12-20T03:29:41;5.30;99.90
15596;DHT22;7898;48.658;9.068;2023-12-20T03:32:09;5.40;99.90
15596;DHT22;7898;48.658;9.068;2023-12-20T03:34:36;5.40;99.90
15596;DHT22;7898;48.658;9.068;2023-12-20T03:37:03;5.30;99.90
15596;DHT22;7898;48.658;9.068;2023-12-20T03:39:30;5.30;99.90
15596;DHT22;7898;48.658;9.068;2023-12-20T03:41:56;5.30;99.90
15596;DHT22;7898;48.658;9.068;2023-12-20T03:44:23;5.30;99.90
15596;DHT22;7898;48.658;9.068;2023-12-20T03:46:50;5.30;99.90
15596;DHT22;7898;48.658;9.068;2023-12-20T03:49:18;5.30;99.90
15596;DHT22;7898;48.658;9.068;2023-12-20T03:51:45;5.30;99.90
15596;DHT22;7898;48.658;9.068;2023-12-20T03:54:12;5.30;99.90
15596;DHT22;7898;48.658;9.068;2023-12-20T03:56:39;5.30;99.90
15596;DHT22;7898;48.658;9.068;2023-12-20T03:59:05;5.30;99.90
15596;DHT22;7898;48.658;9.068;2023-12-20T04:01:32;5.30;99.90
15596;DHT22;7898;48.658;9.068;2023-12-20T04:03:59;5.20;99.90
15596;DHT22;7898;48.658;9.068;2023-12-20T04:06:27;5.20;99.90
15596;DHT22;7898;48.658;9.068;2023-12-20T04:08:54;5.20;99.90
15596;DHT22;7898;48.658;9.068;2023-12-20T04:11:21;5.20;99.90
15596;DHT22;7898;48.658;9.068;2023-12-20T04:13:48;5.20;99.90
15596;DHT22;7898;48.658;9.068;2023-12-20T04:16:15;5.10;99.90
15596;DHT22;7898;48.658;9.068;2023-12-20T04:18:42;5.20;99.90
15596;DHT22;7898;48.658;9.068;2023-12-20T04:21:09;5.10;99.90
15596;DHT22;7898;48.658;9.068;2023-12-20T04:23:37;5.10;99.90
15596;DHT22;7898;48.658;9.068;2023-12-20T04:26:04;5.10;99.90
15596;DHT22;7898;48.658;9.068;2023-12-20T04:28:31;5.10;99.90
15596;DHT22;7898;48.658;9.068;2023-12-20T04:30:57;5.10;99.90
15596;DHT22;7898;48.658;9.068;2023-12-20T04:33:24;5.10;99.90
15596;DHT22;7898;48.658;9.068;2023-12-20T04:35:51;5.10;99.90
15596;DHT22;7898;48.658;9.068;2023-12-20T04:38:18;5.20;99.90
15596;DHT22;7898;48.658;9.068;2023-12-20T04:40:46;5.20;99.90
15596;DHT22;7898;48.658;9.068;2023-12-20T04:43:13;5.10;99.90
15596;DHT22;7898;48.658;9.068;2023-12-20T04:45:40;5.10;99.90
15596;DHT22;7898;48.658;9.068;2023-12-20T04:48:07;5.10;99.90
15596;DHT22;7898;48.658;9.068;2023-12-20T04:50:34;5.10;99.90
15596;DHT22;7898;48.658;9.068;2023-12-20T04:53:01;5.10;99.90
15596;DHT22;7898;48.658;9.068;2023-12-20T04:55:28;5.10;99.90
15596;DHT22;7898;48.658;9.068;2023-12-20T04:57:56;5.10;99.90
15596;DHT22;7898;48.658;9.068;2023-12-20T05:00:23;5.00;99.90
15596;DHT22;7898;48.658;9.068;2023-12-20T05:02:49;5.00;99.90
15596;DHT22;7898;48.658;9.068;2023-12-20T05:05:16;5.00;99.90
15596;DHT22;7898;48.658;9.068;2023-12-20T05:07:43;5.00;99.90
15596;DHT22;7898;48.658;9.068;2023-12-20T05:10:10;4.90;99.90
15596;DHT22;7898;48.658;9.068;2023-12-20T05:12:37;5.00;99.90
15596;DHT22;7898;48.658;9.068;2023-12-20T05:15:06;4.90;99.90
15596;DHT22;7898;48.658;9.068;2023-12-20T05:17:33;5.00;99.90
15596;DHT22;7898;48.658;9.068;2023-12-20T05:20:00;4.90;99.90
15596;DHT22;7898;48.658;9.068;2023-12-20T05:22:27;4.90;99.90
15596;DHT22;7898;48.658;9.068;2023-12-20T05:24:54;4.90;99.90
15596;DHT22;7898;48.658;9.068;2023-12-20T05:27:20;4.90;99.90
15596;DHT22;7898;48.658;9.068;2023-12-20T05:29:47;4.90;99.90
15596;DHT22;7898;48.658;9.068;2023-12-20T05:32:17;4.90;99.90
15596;DHT22;7898;48.658;9.068;2023-12-20T05:34:43;4.90;99.90
15596;DHT22;7898;48.658;9.068;2023-12-20T05:37:10;4.80;99.90
15596;DHT22;7898;48.658;9.068;2023-12-20T05:39:37;4.80;99.90
15596;DHT22;7898;48.658;9.068;2023-12-20T05:42:04;4.90;99.90
15596;DHT22;7898;48.658;9.068;2023-12-20T05:44:31;4.90;99.90
15596;DHT22;7898;48.658;9.068;2023-12-20T05:46:58;5.00;99.90
15596;DHT22;7898;48.658;9.068;2023-12-20T05:49:26;4.90;99.90
15596;DHT22;7898;48.658;9.068;2023-12-20T05:51:53;4.90;99.90
15596;DHT22;7898;48.658;9.068;2023-12-20T05:54:20;4.90;99.90
15596;DHT22;7898;48.658;9.068;2023-12-20T05:56:47;4.90;99.90
15596;DHT22;7898;48.658;9.068;2023-12-20T05:59:14;5.00;99.90
15596;DHT22;7898;48.658;9.068;2023-12-20T06:01:41;5.00;99.90
15596;DHT22;7898;48.658;9.068;2023-12-20T06:04:14;5.00;99.90
15596;DHT22;7898;48.658;9.068;2023-12-20T06:06:43;5.00;99.90
15596;DHT22;7898;48.658;9.068;2023-12-20T06:09:10;5.00;99.90
15596;DHT22;7898;48.658;9.068;2023-12-20T06:11:38;5.00;99.90
15596;DHT22;7898;48.658;9.068;2023-12-20T06:14:04;5.00;99.90
15596;DHT22;7898;48.658;9.068;2023-12-20T06:16:31;5.00;99.90
15596;DHT22;7898;48.658;9.068;2023-12-20T06:18:58;5.00;99.90
15596;DHT22;7898;48.658;9.068;2023-12-20T06:21:25;5.00;99.90
15596;DHT22;7898;48.658;9.068;2023-12-20T06:23:53;5.00;99.90
15596;DHT22;7898;48.658;9.068;2023-12-20T06:26:20;4.90;99.90
15596;DHT22;7898;48.658;9.068;2023-12-20T06:28:47;4.90;99.90
15596;DHT22;7898;48.658;9.068;2023-12-20T06:31:14;4.90;99.90
15596;DHT22;7898;48.658;9.068;2023-12-20T06:33:41;4.90;99.90
15596;DHT22;7898;48.658;9.068;2023-12-20T06:36:10;5.00;99.90
15596;DHT22;7898;48.658;9.068;2023-12-20T06:38:37;4.90;99.90
15596;DHT22;7898;48.658;9.068;2023-12-20T06:41:05;5.00;99.90
15596;DHT22;7898;48.658;9.068;2023-12-20T06:43:32;5.00;99.90
15596;DHT22;7898;48.658;9.068;2023-12-20T06:46:00;5.00;99.90
15596;DHT22;7898;48.658;9.068;2023-12-20T06:48:27;5.00;99.90
15596;DHT22;7898;48.658;9.068;2023-12-20T06:50:54;5.00;99.90
15596;DHT22;7898;48.658;9.068;2023-12-20T06:53:21;5.00;99.90
15596;DHT22;7898;48.658;9.068;2023-12-20T06:55:48;5.00;99.90
15596;DHT22;7898;48.658;9.068;2023-12-20T06:58:16;5.00;99.90
15596;DHT22;7898;48.658;9.068;2023-12-20T07:00:48;4.90;99.90
15596;DHT22;7898;48.658;9.068;2023-12-20T07:03:15;4.90;99.90
15596;DHT22;7898;48.658;9.068;2023-12-20T07:05:43;4.90;99.90
15596;DHT22;7898;48.658;9.068;2023-12-20T07:08:10;5.00;99.90
15596;DHT22;7898;48.658;9.068;2023-12-20T07:10:39;5.00;99.90
15596;DHT22;7898;48.658;9.068;2023-12-20T07:13:06;5.00;99.90
15596;DHT22;7898;48.658;9.068;2023-12-20T07:15:34;5.00;99.90
15596;DHT22;7898;48.658;9.068;2023-12-20T07:18:02;5.10;99.90
15596;DHT22;7898;48.658;9.068;2023-12-20T07:20:30;5.00;99.90
15596;DHT22;7898;48.658;9.068;2023-12-20T07:22:57;5.00;99.90
15596;DHT22;7898;48.658;9.068;2023-12-20T07:25:24;5.00;99.90
15596;DHT22;7898;48.658;9.068;2023-12-20T07:27:51;5.00;99.90
15596;DHT22;7898;48.658;9.068;2023-12-20T07:30:18;4.90;99.90
15596;DHT22;7898;48.658;9.068;2023-12-20T07:32:46;5.00;99.90
15596;DHT22;7898;48.658;9.068;2023-12-20T07:35:13;4.90;99.90
15596;DHT22;7898;48.658;9.068;2023-12-20T07:37:40;4.90;99.90
15596;DHT22;7898;48.658;9.068;2023-12-20T07:40:07;5.00;99.90
15596;DHT22;7898;48.658;9.068;2023-12-20T07:42:34;5.10;99.90
15596;DHT22;7898;48.658;9.068;2023-12-20T07:45:01;5.10;99.90
15596;DHT22;7898;48.658;9.068;2023-12-20T07:47:28;5.20;99.90
15596;DHT22;7898;48.658;9.068;2023-12-20T07:49:56;5.20;99.90
15596;DHT22;7898;48.658;9.068;2023-12-20T07:52:23;5.30;99.90
15596;DHT22;7898;48.658;9.068;2023-12-20T07:54:51;5.30;99.90
15596;DHT22;7898;48.658;9.068;2023-12-20T07:57:20;5.30;99.90
15596;DHT22;7898;48.658;9.068;2023-12-20T07:59:47;5.30;99.90
15596;DHT22;7898;48.658;9.068;2023-12-20T08:02:14;5.30;99.90
15596;DHT22;7898;48.658;9.068;2023-12-20T08:04:41;5.20;99.90
15596;DHT22;7898;48.658;9.068;2023-12-20T08:07:09;5.20;99.90
15596;DHT22;7898;48.658;9.068;2023-12-20T08:09:36;5.20;99.90
15596;DHT22;7898;48.658;9.068;2023-12-20T08:12:03;5.60;99.90
15596;DHT22;7898;48.658;9.068;2023-12-20T08:14:30;5.20;99.90
15596;DHT22;7898;48.658;9.068;2023-12-20T08:16:57;5.20;99.90
15596;DHT22;7898;48.658;9.068;2023-12-20T08:19:24;5.30;99.90
15596;DHT22;7898;48.658;9.068;2023-12-20T08:21:51;5.20;99.90
15596;DHT22;7898;48.658;9.068;2023-12-20T08:24:19;5.20;99.90
15596;DHT22;7898;48.658;9.068;2023-12-20T08:26:46;5.10;99.90
15596;DHT22;7898;48.658;9.068;2023-12-20T08:29:13;5.20;99.90
15596;DHT22;7898;48.658;9.068;2023-12-20T08:31:40;5.10;99.90
15596;DHT22;7898;48.658;9.068;2023-12-20T08:34:06;5.20;99.90
15596;DHT22;7898;48.658;9.068;2023-12-20T08:36:37;5.20;99.90
15596;DHT22;7898;48.658;9.068;2023-12-20T08:39:04;5.20;99.90
15596;DHT22;7898;48.658;9.068;2023-12-20T08:41:35;5.20;99.90
15596;DHT22;7898;48.658;9.068;2023-12-20T08:44:02;5.20;99.90
15596;DHT22;7898;48.658;9.068;2023-12-20T08:46:29;5.30;99.90
15596;DHT22;7898;48.658;9.068;2023-12-20T08:48:56;5.50;99.90
15596;DHT22;7898;48.658;9.068;2023-12-20T08:51:23;5.30;99.90
15596;DHT22;7898;48.658;9.068;2023-12-20T08:53:51;5.30;99.90
15596;DHT22;7898;48.658;9.068;2023-12-20T08:56:18;5.30;99.90
15596;DHT22;7898;48.658;9.068;2023-12-20T08:58:46;5.30;99.90
15596;DHT22;7898;48.658;9.068;2023-12-20T09:01:13;5.30;99.90
15596;DHT22;7898;48.658;9.068;2023-12-20T09:03:42;5.30;99.90
15596;DHT22;7898;48.658;9.068;2023-12-20T09:06:09;5.80;99.90
15596;DHT22;7898;48.658;9.068;2023-12-20T09:08:36;5.30;99.90
15596;DHT22;7898;48.658;9.068;2023-12-20T09:11:06;5.40;99.90
15596;DHT22;7898;48.658;9.068;2023-12-20T09:13:33;5.30;99.90
15596;DHT22;7898;48.658;9.068;2023-12-20T09:16:05;5.40;99.90
15596;DHT22;7898;48.658;9.068;2023-12-20T09:18:32;5.40;99.90
15596;DHT22;7898;48.658;9.068;2023-12-20T09:20:59;5.40;99.90
15596;DHT22;7898;48.658;9.068;2023-12-20T09:23:26;5.40;99.90
15596;DHT22;7898;48.658;9.068;2023-12-20T09:25:53;5.50;99.90
15596;DHT22;7898;48.658;9.068;2023-12-20T09:28:19;5.50;99.90
15596;DHT22;7898;48.658;9.068;2023-12-20T09:30:46;5.90;99.90
15596;DHT22;7898;48.658;9.068;2023-12-20T09:33:14;5.30;99.90
15596;DHT22;7898;48.658;9.068;2023-12-20T09:35:41;5.20;99.90
15596;DHT22;7898;48.658;9.068;2023-12-20T09:38:09;5.20;99.90
15596;DHT22;7898;48.658;9.068;2023-12-20T09:40:36;5.30;99.90
15596;DHT22;7898;48.658;9.068;2023-12-20T09:43:11;5.80;99.90
15596;DHT22;7898;48.658;9.068;2023-12-20T09:45:40;6.40;99.90
15596;DHT22;7898;48.658;9.068;2023-12-20T09:48:10;7.10;99.90
15596;DHT22;7898;48.658;9.068;2023-12-20T09:50:39;7.60;99.90
15596;DHT22;7898;48.658;9.068;2023-12-20T09:53:08;7.90;99.90
15596;DHT22;7898;48.658;9.068;2023-12-20T09:55:36;8.00;99.90
15596;DHT22;7898;48.658;9.068;2023-12-20T09:58:04;7.90;99.90
15596;DHT22;7898;48.658;9.068;2023-12-20T10:00:32;7.70;99.90
15596;DHT22;7898;48.658;9.068;2023-12-20T10:03:00;7.60;99.90
15596;DHT22;7898;48.658;9.068;2023-12-20T10:05:28;7.50;99.90
15596;DHT22;7898;48.658;9.068;2023-12-20T10:07:57;7.30;99.90
15596;DHT22;7898;48.658;9.068;2023-12-20T10:10:26;7.50;99.90
15596;DHT22;7898;48.658;9.068;2023-12-20T10:13:04;7.40;99.90
15596;DHT22;7898;48.658;9.068;2023-12-20T10:15:32;7.20;99.90
15596;DHT22;7898;48.658;9.068;2023-12-20T10:17:59;7.10;99.90
15596;DHT22;7898;48.658;9.068;2023-12-20T10:20:27;7.00;99.90
15596;DHT22;7898;48.658;9.068;2023-12-20T10:22:54;7.10;99.90
15596;DHT22;7898;48.658;9.068;2023-12-20T10:25:23;7.10;99.90
15596;DHT22;7898;48.658;9.068;2023-12-20T10:27:50;7.10;99.90
15596;DHT22;7898;48.658;9.068;2023-12-20T10:30:34;7.30;99.90
15596;DHT22;7898;48.658;9.068;2023-12-20T10:33:02;7.40;99.90
15596;DHT22;7898;48.658;9.068;2023-12-20T10:35:28;7.90;99.90
15596;DHT22;7898;48.658;9.068;2023-12-20T10:37:56;8.20;99.90
15596;DHT22;7898;48.658;9.068;2023-12-20T10:40:27;8.80;99.90
15596;DHT22;7898;48.658;9.068;2023-12-20T10:42:56;9.00;99.90
15596;DHT22;7898;48.658;9.068;2023-12-20T10:45:23;9.00;99.90
15596;DHT22;7898;48.658;9.068;2023-12-20T10:47:50;8.70;99.90
15596;DHT22;7898;48.658;9.068;2023-12-20T10:50:18;8.40;99.90
15596;DHT22;7898;48.658;9.068;2023-12-20T10:52:46;7.90;99.90
15596;DHT22;7898;48.658;9.068;2023-12-20T10:55:13;7.50;99.90
15596;DHT22;7898;48.658;9.068;2023-12-20T10:57:42;7.10;99.90
15596;DHT22;7898;48.658;9.068;2023-12-20T11:00:13;6.90;99.90
15596;DHT22;7898;48.658;9.068;2023-12-20T11:02:41;6.70;99.90
15596;DHT22;7898;48.658;9.068;2023-12-20T11:05:19;6.60;99.90
15596;DHT22;7898;48.658;9.068;2023-12-20T11:07:49;6.50;99.90
15596;DHT22;7898;48.658;9.068;2023-12-20T11:10:19;6.50;99.90
15596;DHT22;7898;48.658;9.068;2023-12-20T11:12:53;6.40;99.90
15596;DHT22;7898;48.658;9.068;2023-12-20T11:15:21;6.40;99.90
15596;DHT22;7898;48.658;9.068;2023-12-20T11:17:54;6.50;99.90
15596;DHT22;7898;48.658;9.068;2023-12-20T11:20:23;6.60;99.90
15596;DHT22;7898;48.658;9.068;2023-12-20T11:22:54;6.70;99.90
15596;DHT22;7898;48.658;9.068;2023-12-20T11:25:21;6.70;99.90
15596;DHT22;7898;48.658;9.068;2023-12-20T11:28:09;6.70;99.90
15596;DHT22;7898;48.658;9.068;2023-12-20T11:30:46;6.60;99.90
15596;DHT22;7898;48.658;9.068;2023-12-20T11:33:13;6.50;99.90
15596;DHT22;7898;48.658;9.068;2023-12-20T11:35:40;6.40;99.90
15596;DHT22;7898;48.658;9.068;2023-12-20T11:38:08;6.20;99.90
15596;DHT22;7898;48.658;9.068;2023-12-20T11:40:36;6.20;99.90
15596;DHT22;7898;48.658;9.068;2023-12-20T11:43:04;6.00;99.90
15596;DHT22;7898;48.658;9.068;2023-12-20T11:45:32;6.10;99.90
15596;DHT22;7898;48.658;9.068;2023-12-20T11:48:01;6.10;99.90
15596;DHT22;7898;48.658;9.068;2023-12-20T11:50:29;6.10;99.90
15596;DHT22;7898;48.658;9.068;2023-12-20T11:52:56;6.10;99.90
15596;DHT22;7898;48.658;9.068;2023-12-20T11:55:23;6.40;99.90
15596;DHT22;7898;48.658;9.068;2023-12-20T11:57:51;6.10;99.90
15596;DHT22;7898;48.658;9.068;2023-12-20T12:00:19;6.10;99.90
15596;DHT22;7898;48.658;9.068;2023-12-20T12:02:57;6.00;99.90
15596;DHT22;7898;48.658;9.068;2023-12-20T12:05:24;5.90;99.90
15596;DHT22;7898;48.658;9.068;2023-12-20T12:07:51;5.80;99.90
15596;DHT22;7898;48.658;9.068;2023-12-20T12:10:18;5.90;99.90
15596;DHT22;7898;48.658;9.068;2023-12-20T12:12:45;5.60;99.90
15596;DHT22;7898;48.658;9.068;2023-12-20T12:15:13;5.50;99.90
15596;DHT22;7898;48.658;9.068;2023-12-20T12:17:41;5.50;99.90
15596;DHT22;7898;48.658;9.068;2023-12-20T12:20:09;5.60;99.90
15596;DHT22;7898;48.658;9.068;2023-12-20T12:22:37;5.50;99.90
15596;DHT22;7898;48.658;9.068;2023-12-20T12:25:11;5.50;99.90
15596;DHT22;7898;48.658;9.068;2023-12-20T12:27:40;5.60;99.90
15596;DHT22;7898;48.658;9.068;2023-12-20T12:30:09;5.60;99.90
15596;DHT22;7898;48.658;9.068;2023-12-20T12:32:38;5.60;99.90
15596;DHT22;7898;48.658;9.068;2023-12-20T12:35:05;5.60;99.90
15596;DHT22;7898;48.658;9.068;2023-12-20T12:37:37;5.60;99.90
15596;DHT22;7898;48.658;9.068;2023-12-20T12:40:06;5.60;99.90
15596;DHT22;7898;48.658;9.068;2023-12-20T12:42:33;5.60;99.90
15596;DHT22;7898;48.658;9.068;2023-12-20T12:52:02;5.60;99.90
15596;DHT22;7898;48.658;9.068;2023-12-20T12:54:40;5.60;99.90
15596;DHT22;7898;48.658;9.068;2023-12-20T12:57:08;5.70;99.90
15596;DHT22;7898;48.658;9.068;2023-12-20T12:59:35;5.70;99.90
15596;DHT22;7898;48.658;9.068;2023-12-20T13:02:01;5.80;99.90
15596;DHT22;7898;48.658;9.068;2023-12-20T13:04:29;5.80;99.90
15596;DHT22;7898;48.658;9.068;2023-12-20T13:06:56;5.80;99.90
15596;DHT22;7898;48.658;9.068;2023-12-20T13:09:26;5.90;99.90
15596;DHT22;7898;48.658;9.068;2023-12-20T13:11:54;5.90;99.90
15596;DHT22;7898;48.658;9.068;2023-12-20T13:14:21;5.90;99.90
15596;DHT22;7898;48.658;9.068;2023-12-20T13:16:48;5.90;99.90
15596;DHT22;7898;48.658;9.068;2023-12-20T13:19:15;5.80;99.90
15596;DHT22;7898;48.658;9.068;2023-12-20T13:21:42;5.80;99.90
15596;DHT22;7898;48.658;9.068;2023-12-20T13:24:09;5.80;99.90
15596;DHT22;7898;48.658;9.068;2023-12-20T13:26:36;5.90;99.90
15596;DHT22;7898;48.658;9.068;2023-12-20T13:29:04;5.60;99.90
15596;DHT22;7898;48.658;9.068;2023-12-20T13:31:31;6.00;99.90
15596;DHT22;7898;48.658;9.068;2023-12-20T13:33:58;6.30;99.90
15596;DHT22;7898;48.658;9.068;2023-12-20T13:36:26;6.30;99.90
15596;DHT22;7898;48.658;9.068;2023-12-20T13:38:53;6.20;99.90
15596;DHT22;7898;48.658;9.068;2023-12-20T13:41:20;6.10;99.90
15596;DHT22;7898;48.658;9.068;2023-12-20T13:43:47;5.50;99.90
15596;DHT22;7898;48.658;9.068;2023-12-20T13:46:15;6.00;99.90
15596;DHT22;7898;48.658;9.068;2023-12-20T13:48:42;6.10;99.90
15596;DHT22;7898;48.658;9.068;2023-12-20T13:51:10;6.10;99.90
15596;DHT22;7898;48.658;9.068;2023-12-20T13:53:37;6.00;99.90
15596;DHT22;7898;48.658;9.068;2023-12-20T13:56:05;6.00;99.90
15596;DHT22;7898;48.658;9.068;2023-12-20T13:58:33;5.90;99.90
15596;DHT22;7898;48.658;9.068;2023-12-20T14:00:59;5.80;99.90
15596;DHT22;7898;48.658;9.068;2023-12-20T14:03:31;5.80;99.90
15596;DHT22;7898;48.658;9.068;2023-12-20T14:05:58;5.70;99.90
15596;DHT22;7898;48.658;9.068;2023-12-20T14:08:25;5.70;99.90
15596;DHT22;7898;48.658;9.068;2023-12-20T14:10:53;5.70;99.90
15596;DHT22;7898;48.658;9.068;2023-12-20T14:13:20;5.70;99.90
15596;DHT22;7898;48.658;9.068;2023-12-20T14:15:47;5.60;99.90
15596;DHT22;7898;48.658;9.068;2023-12-20T14:18:15;5.50;99.90
15596;DHT22;7898;48.658;9.068;2023-12-20T14:20:43;5.40;99.90
15596;DHT22;7898;48.658;9.068;2023-12-20T14:23:12;5.40;99.90
15596;DHT22;7898;48.658;9.068;2023-12-20T14:25:40;5.40;99.90
15596;DHT22;7898;48.658;9.068;2023-12-20T14:28:07;5.40;99.90
15596;DHT22;7898;48.658;9.068;2023-12-20T14:30:35;5.40;99.90
15596;DHT22;7898;48.658;9.068;2023-12-20T14:33:04;5.40;99.90
15596;DHT22;7898;48.658;9.068;2023-12-20T14:35:31;5.30;99.90
15596;DHT22;7898;48.658;9.068;2023-12-20T14:37:59;5.30;99.90
15596;DHT22;7898;48.658;9.068;2023-12-20T14:40:26;5.30;99.90
15596;DHT22;7898;48.658;9.068;2023-12-20T14:42:55;5.20;99.90
15596;DHT22;7898;48.658;9.068;2023-12-20T14:45:26;5.20;99.90
15596;DHT22;7898;48.658;9.068;2023-12-20T14:47:53;5.10;99.90
15596;DHT22;7898;48.658;9.068;2023-12-20T14:50:20;5.70;99.90
15596;DHT22;7898;48.658;9.068;2023-12-20T14:52:47;5.00;99.90
15596;DHT22;7898;48.658;9.068;2023-12-20T14:55:15;5.20;99.90
15596;DHT22;7898;48.658;9.068;2023-12-20T14:57:42;4.90;99.90
15596;DHT22;7898;48.658;9.068;2023-12-20T15:00:10;4.90;99.90
15596;DHT22;7898;48.658;9.068;2023-12-20T15:02:40;4.90;99.90
15596;DHT22;7898;48.658;9.068;2023-12-20T15:05:07;4.80;99.90
15596;DHT22;7898;48.658;9.068;2023-12-20T15:07:35;4.80;99.90
15596;DHT22;7898;48.658;9.068;2023-12-20T15:10:02;4.70;99.90
15596;DHT22;7898;48.658;9.068;2023-12-20T15:12:31;4.70;99.90
15596;DHT22;7898;48.658;9.068;2023-12-20T15:14:59;4.60;99.90
15596;DHT22;7898;48.658;9.068;2023-12-20T15:17:26;4.60;99.90
15596;DHT22;7898;48.658;9.068;2023-12-20T15:19:53;4.60;99.90
15596;DHT22;7898;48.658;9.068;2023-12-20T15:22:20;4.60;99.90
15596;DHT22;7898;48.658;9.068;2023-12-20T15:24:47;4.60;99.90
15596;DHT22;7898;48.658;9.068;2023-12-20T15:27:14;4.50;99.90
15596;DHT22;7898;48.658;9.068;2023-12-20T15:29:43;4.50;99.90
15596;DHT22;7898;48.658;9.068;2023-12-20T15:32:10;4.50;99.90
15596;DHT22;7898;48.658;9.068;2023-12-20T15:34:37;4.60;99.90
15596;DHT22;7898;48.658;9.068;2023-12-20T15:37:04;4.60;99.90
15596;DHT22;7898;48.658;9.068;2023-12-20T15:39:31;4.60;99.90
15596;DHT22;7898;48.658;9.068;2023-12-20T15:41:57;4.90;99.90
15596;DHT22;7898;48.658;9.068;2023-12-20T15:44:24;4.50;99.90
15596;DHT22;7898;48.658;9.068;2023-12-20T15:46:53;4.50;99.90
15596;DHT22;7898;48.658;9.068;2023-12-20T15:49:19;4.50;99.90
15596;DHT22;7898;48.658;9.068;2023-12-20T15:51:46;4.50;99.90
15596;DHT22;7898;48.658;9.068;2023-12-20T15:54:13;4.50;99.90
15596;DHT22;7898;48.658;9.068;2023-12-20T15:56:40;4.40;99.90
15596;DHT22;7898;48.658;9.068;2023-12-20T15:59:10;4.40;99.90
15596;DHT22;7898;48.658;9.068;2023-12-20T16:01:37;4.50;99.90
15596;DHT22;7898;48.658;9.068;2023-12-20T16:04:05;4.40;99.90
15596;DHT22;7898;48.658;9.068;2023-12-20T16:06:32;4.30;99.90
15596;DHT22;7898;48.658;9.068;2023-12-20T16:09:02;4.60;99.90
15596;DHT22;7898;48.658;9.068;2023-12-20T16:11:28;4.40;99.90